sensor_id;sensor_type;location;lat;lon;timestamp;temperature;humidity
44166;DHT22;30476;53.468;9.826;2022-12-01T00:00:56;6.90;99.90
44166;DHT22;30476;53.468;9.826;2022-12-01T00:03:22;6.90;99.90
44166;DHT22;30476;53.468;9.826;2022-12-01T00:05:57;6.90;99.90
44166;DHT22;30476;53.468;9.826;2022-12-01T00:08:23;6.90;99.90
44166;DHT22;30476;53.468;9.826;2022-12-01T00:10:49;6.90;99.90
44166;DHT22;30476;53.468;9.826;2022-12-01T00:13:15;6.90;99.90
44166;DHT22;30476;53.468;9.826;2022-12-01T00:15:41;6.90;99.90
44166;DHT22;30476;53.468;9.826;2022-12-01T00:18:08;6.90;99.90
44166;DHT22;30476;53.468;9.826;2022-12-01T00:20:34;6.80;99.90
44166;DHT22;30476;53.468;9.826;2022-12-01T00:23:00;6.90;99.90
44166;DHT22;30476;53.468;9.826;2022-12-01T00:25:27;6.90;99.90
44166;DHT22;30476;53.468;9.826;2022-12-01T00:27:53;6.90;99.90
44166;DHT22;30476;53.468;9.826;2022-12-01T00:30:21;6.90;99.90
44166;DHT22;30476;53.468;9.826;2022-12-01T00:32:47;6.90;99.90
44166;DHT22;30476;53.468;9.826;2022-12-01T00:35:13;6.90;99.90
44166;DHT22;30476;53.468;9.826;2022-12-01T00:37:40;6.90;99.90
44166;DHT22;30476;53.468;9.826;2022-12-01T00:40:07;6.90;99.90
44166;DHT22;30476;53.468;9.826;2022-12-01T00:42:33;6.90;99.90
44166;DHT22;30476;53.468;9.826;2022-12-01T00:44:59;6.90;99.90
44166;DHT22;30476;53.468;9.826;2022-12-01T00:47:25;6.80;99.90
44166;DHT22;30476;53.468;9.826;2022-12-01T00:49:51;6.80;99.90
44166;DHT22;30476;53.468;9.826;2022-12-01T00:52:18;6.80;99.90
44166;DHT22;30476;53.468;9.826;2022-12-01T00:54:44;6.90;99.90
44166;DHT22;30476;53.468;9.826;2022-12-01T00:57:10;6.80;99.90
44166;DHT22;30476;53.468;9.826;2022-12-01T00:59:36;6.80;99.90
44166;DHT22;30476;53.468;9.826;2022-12-01T01:02:04;6.80;99.90
44166;DHT22;30476;53.468;9.826;2022-12-01T01:04:32;6.80;99.90
44166;DHT22;30476;53.468;9.826;2022-12-01T01:06:58;6.80;99.90
44166;DHT22;30476;53.468;9.826;2022-12-01T01:09:24;6.80;99.90
44166;DHT22;30476;53.468;9.826;2022-12-01T01:11:53;6.80;99.90
44166;DHT22;30476;53.468;9.826;2022-12-01T01:14:19;6.80;99.90
44166;DHT22;30476;53.468;9.826;2022-12-01T01:16:45;6.80;99.90
44166;DHT22;30476;53.468;9.826;2022-12-01T01:19:11;6.80;99.90
44166;DHT22;30476;53.468;9.826;2022-12-01T01:21:37;6.80;99.90
44166;DHT22;30476;53.468;9.826;2022-12-01T01:24:03;6.80;99.90
44166;DHT22;30476;53.468;9.826;2022-12-01T01:26:30;6.80;99.90
44166;DHT22;30476;53.468;9.826;2022-12-01T01:28:59;6.80;99.90
44166;DHT22;30476;53.468;9.826;2022-12-01T01:31:26;6.80;99.90
44166;DHT22;30476;53.468;9.826;2022-12-01T01:33:54;6.70;99.90
44166;DHT22;30476;53.468;9.826;2022-12-01T01:36:20;6.70;99.90
44166;DHT22;30476;53.468;9.826;2022-12-01T01:38:46;6.70;99.90
44166;DHT22;30476;53.468;9.826;2022-12-01T01:41:13;6.70;99.90
44166;DHT22;30476;53.468;9.826;2022-12-01T01:43:52;6.70;99.90
44166;DHT22;30476;53.468;9.826;2022-12-01T01:46:21;6.70;99.90
44166;DHT22;30476;53.468;9.826;2022-12-01T01:48:51;6.70;99.90
44166;DHT22;30476;53.468;9.826;2022-12-01T01:51:21;6.70;99.90
44166;DHT22;30476;53.468;9.826;2022-12-01T01:53:52;6.70;99.90
44166;DHT22;30476;53.468;9.826;2022-12-01T01:56:18;6.70;99.90
44166;DHT22;30476;53.468;9.826;2022-12-01T01:58:44;6.70;99.90
44166;DHT22;30476;53.468;9.826;2022-12-01T02:01:10;6.70;99.90
44166;DHT22;30476;53.468;9.826;2022-12-01T02:03:37;6.70;99.90
44166;DHT22;30476;53.468;9.826;2022-12-01T02:06:04;6.70;99.90
44166;DHT22;30476;53.468;9.826;2022-12-01T02:08:33;6.70;99.90
44166;DHT22;30476;53.468;9.826;2022-12-01T02:11:10;6.70;99.90
44166;DHT22;30476;53.468;9.826;2022-12-01T02:13:54;6.70;99.90
44166;DHT22;30476;53.468;9.826;2022-12-01T02:16:42;6.70;99.90
44166;DHT22;30476;53.468;9.826;2022-12-01T02:19:27;6.70;99.90
44166;DHT22;30476;53.468;9.826;2022-12-01T02:27:55;6.60;99.90
44166;DHT22;30476;53.468;9.826;2022-12-01T02:30:38;6.60;99.90
44166;DHT22;30476;53.468;9.826;2022-12-01T02:33:32;6.60;99.90
44166;DHT22;30476;53.468;9.826;2022-12-01T02:36:17;6.60;99.90
44166;DHT22;30476;53.468;9.826;2022-12-01T02:39:05;6.60;99.90
44166;DHT22;30476;53.468;9.826;2022-12-01T02:41:59;6.60;99.90
44166;DHT22;30476;53.468;9.826;2022-12-01T02:44:32;6.60;99.90
44166;DHT22;30476;53.468;9.826;2022-12-01T02:47:04;6.60;99.90
44166;DHT22;30476;53.468;9.826;2022-12-01T02:49:47;6.60;99.90
44166;DHT22;30476;53.468;9.826;2022-12-01T02:52:15;6.60;99.90
44166;DHT22;30476;53.468;9.826;2022-12-01T02:54:43;6.50;99.90
44166;DHT22;30476;53.468;9.826;2022-12-01T02:57:15;6.60;99.90
44166;DHT22;30476;53.468;9.826;2022-12-01T02:59:42;6.60;99.90
44166;DHT22;30476;53.468;9.826;2022-12-01T03:02:21;6.60;99.90
44166;DHT22;30476;53.468;9.826;2022-12-01T03:07:55;6.50;99.90
44166;DHT22;30476;53.468;9.826;2022-12-01T03:10:55;6.50;99.90
44166;DHT22;30476;53.468;9.826;2022-12-01T03:13:41;6.50;99.90
44166;DHT22;30476;53.468;9.826;2022-12-01T03:16:26;6.50;99.90
44166;DHT22;30476;53.468;9.826;2022-12-01T03:19:02;6.50;99.90
44166;DHT22;30476;53.468;9.826;2022-12-01T03:21:34;6.50;99.90
44166;DHT22;30476;53.468;9.826;2022-12-01T03:24:04;6.50;99.90
44166;DHT22;30476;53.468;9.826;2022-12-01T03:26:34;6.50;99.90
44166;DHT22;30476;53.468;9.826;2022-12-01T03:29:17;6.50;99.90
44166;DHT22;30476;53.468;9.826;2022-12-01T03:31:49;6.50;99.90
44166;DHT22;30476;53.468;9.826;2022-12-01T03:34:24;6.50;99.90
44166;DHT22;30476;53.468;9.826;2022-12-01T03:36:55;6.50;99.90
44166;DHT22;30476;53.468;9.826;2022-12-01T03:39:26;6.50;99.90
44166;DHT22;30476;53.468;9.826;2022-12-01T03:41:56;6.50;99.90
44166;DHT22;30476;53.468;9.826;2022-12-01T03:44:30;6.40;99.90
44166;DHT22;30476;53.468;9.826;2022-12-01T03:47:03;6.40;99.90
44166;DHT22;30476;53.468;9.826;2022-12-01T03:49:31;6.40;99.90
44166;DHT22;30476;53.468;9.826;2022-12-01T03:54:51;6.40;99.90
44166;DHT22;30476;53.468;9.826;2022-12-01T03:57:25;6.40;99.90
44166;DHT22;30476;53.468;9.826;2022-12-01T03:59:53;6.40;99.90
44166;DHT22;30476;53.468;9.826;2022-12-01T04:02:19;6.40;99.90
44166;DHT22;30476;53.468;9.826;2022-12-01T04:04:45;6.40;99.90
44166;DHT22;30476;53.468;9.826;2022-12-01T04:07:11;6.40;99.90
44166;DHT22;30476;53.468;9.826;2022-12-01T04:09:39;6.30;99.90
44166;DHT22;30476;53.468;9.826;2022-12-01T04:12:06;6.30;99.90
44166;DHT22;30476;53.468;9.826;2022-12-01T04:14:52;6.30;99.90
44166;DHT22;30476;53.468;9.826;2022-12-01T04:17:18;6.30;99.90
44166;DHT22;30476;53.468;9.826;2022-12-01T04:19:44;6.20;99.90
44166;DHT22;30476;53.468;9.826;2022-12-01T04:22:10;6.30;99.90
44166;DHT22;30476;53.468;9.826;2022-12-01T04:24:36;6.30;99.90
44166;DHT22;30476;53.468;9.826;2022-12-01T04:27:02;6.30;99.90
44166;DHT22;30476;53.468;9.826;2022-12-01T04:29:27;6.30;99.90
44166;DHT22;30476;53.468;9.826;2022-12-01T04:31:53;6.30;99.90
44166;DHT22;30476;53.468;9.826;2022-12-01T04:34:19;6.20;99.90
44166;DHT22;30476;53.468;9.826;2022-12-01T04:36:45;6.30;99.90
44166;DHT22;30476;53.468;9.826;2022-12-01T04:39:11;6.30;99.90
44166;DHT22;30476;53.468;9.826;2022-12-01T04:41:36;6.30;99.90
44166;DHT22;30476;53.468;9.826;2022-12-01T04:44:02;6.30;99.90
44166;DHT22;30476;53.468;9.826;2022-12-01T04:46:28;6.30;99.90
44166;DHT22;30476;53.468;9.826;2022-12-01T04:48:54;6.30;99.90
44166;DHT22;30476;53.468;9.826;2022-12-01T04:51:20;6.30;99.90
44166;DHT22;30476;53.468;9.826;2022-12-01T04:53:48;6.30;99.90
44166;DHT22;30476;53.468;9.826;2022-12-01T04:56:14;6.30;99.90
44166;DHT22;30476;53.468;9.826;2022-12-01T04:58:40;6.30;99.90
44166;DHT22;30476;53.468;9.826;2022-12-01T05:01:08;6.20;99.90
44166;DHT22;30476;53.468;9.826;2022-12-01T05:03:35;6.20;99.90
44166;DHT22;30476;53.468;9.826;2022-12-01T05:06:06;6.20;99.90
44166;DHT22;30476;53.468;9.826;2022-12-01T05:08:32;6.20;99.90
44166;DHT22;30476;53.468;9.826;2022-12-01T05:10:59;6.20;99.90
44166;DHT22;30476;53.468;9.826;2022-12-01T05:13:25;6.20;99.90
44166;DHT22;30476;53.468;9.826;2022-12-01T05:15:51;6.20;99.90
44166;DHT22;30476;53.468;9.826;2022-12-01T05:18:17;6.20;99.90
44166;DHT22;30476;53.468;9.826;2022-12-01T05:20:43;6.20;99.90
44166;DHT22;30476;53.468;9.826;2022-12-01T05:23:26;6.20;99.90
44166;DHT22;30476;53.468;9.826;2022-12-01T05:25:52;6.20;99.90
44166;DHT22;30476;53.468;9.826;2022-12-01T05:28:19;6.30;99.90
44166;DHT22;30476;53.468;9.826;2022-12-01T05:30:45;6.30;99.90
44166;DHT22;30476;53.468;9.826;2022-12-01T05:33:11;6.20;99.90
44166;DHT22;30476;53.468;9.826;2022-12-01T05:35:37;6.20;99.90
44166;DHT22;30476;53.468;9.826;2022-12-01T05:38:03;6.20;99.90
44166;DHT22;30476;53.468;9.826;2022-12-01T05:40:29;6.20;99.90
44166;DHT22;30476;53.468;9.826;2022-12-01T05:42:56;6.20;99.90
44166;DHT22;30476;53.468;9.826;2022-12-01T05:45:22;6.20;99.90
44166;DHT22;30476;53.468;9.826;2022-12-01T05:47:48;6.10;99.90
44166;DHT22;30476;53.468;9.826;2022-12-01T05:50:14;6.20;99.90
44166;DHT22;30476;53.468;9.826;2022-12-01T05:52:40;6.20;99.90
44166;DHT22;30476;53.468;9.826;2022-12-01T05:55:06;6.20;99.90
44166;DHT22;30476;53.468;9.826;2022-12-01T05:57:32;6.20;99.90
44166;DHT22;30476;53.468;9.826;2022-12-01T05:59:58;6.20;99.90
44166;DHT22;30476;53.468;9.826;2022-12-01T06:02:24;6.20;99.90
44166;DHT22;30476;53.468;9.826;2022-12-01T06:04:53;6.20;99.90
44166;DHT22;30476;53.468;9.826;2022-12-01T06:07:20;6.20;99.90
44166;DHT22;30476;53.468;9.826;2022-12-01T06:09:46;6.20;99.90
44166;DHT22;30476;53.468;9.826;2022-12-01T06:12:12;6.20;99.90
44166;DHT22;30476;53.468;9.826;2022-12-01T06:14:38;6.20;99.90
44166;DHT22;30476;53.468;9.826;2022-12-01T06:17:04;6.20;99.90
44166;DHT22;30476;53.468;9.826;2022-12-01T06:19:30;6.20;99.90
44166;DHT22;30476;53.468;9.826;2022-12-01T06:21:56;6.20;99.90
44166;DHT22;30476;53.468;9.826;2022-12-01T06:24:22;6.20;99.90
44166;DHT22;30476;53.468;9.826;2022-12-01T06:26:48;6.20;99.90
44166;DHT22;30476;53.468;9.826;2022-12-01T06:29:14;6.20;99.90
44166;DHT22;30476;53.468;9.826;2022-12-01T06:31:40;6.20;99.90
44166;DHT22;30476;53.468;9.826;2022-12-01T06:34:06;6.20;99.90
44166;DHT22;30476;53.468;9.826;2022-12-01T06:36:32;6.30;99.90
44166;DHT22;30476;53.468;9.826;2022-12-01T06:38:58;6.20;99.90
44166;DHT22;30476;53.468;9.826;2022-12-01T06:41:24;6.20;99.90
44166;DHT22;30476;53.468;9.826;2022-12-01T06:43:49;6.20;99.90
44166;DHT22;30476;53.468;9.826;2022-12-01T06:46:15;6.20;99.90
44166;DHT22;30476;53.468;9.826;2022-12-01T06:48:41;6.20;99.90
44166;DHT22;30476;53.468;9.826;2022-12-01T06:51:07;6.20;99.90
44166;DHT22;30476;53.468;9.826;2022-12-01T06:53:33;6.20;99.90
44166;DHT22;30476;53.468;9.826;2022-12-01T06:56:00;6.20;99.90
44166;DHT22;30476;53.468;9.826;2022-12-01T06:58:26;6.20;99.90
44166;DHT22;30476;53.468;9.826;2022-12-01T07:00:52;6.20;99.90
44166;DHT22;30476;53.468;9.826;2022-12-01T07:03:17;6.20;99.90
44166;DHT22;30476;53.468;9.826;2022-12-01T07:05:43;6.20;99.90
44166;DHT22;30476;53.468;9.826;2022-12-01T07:08:09;6.20;99.90
44166;DHT22;30476;53.468;9.826;2022-12-01T07:10:36;6.20;99.90
44166;DHT22;30476;53.468;9.826;2022-12-01T07:13:02;6.20;99.90
44166;DHT22;30476;53.468;9.826;2022-12-01T07:15:28;6.20;99.90
44166;DHT22;30476;53.468;9.826;2022-12-01T07:17:54;6.20;99.90
44166;DHT22;30476;53.468;9.826;2022-12-01T07:20:20;6.20;99.90
44166;DHT22;30476;53.468;9.826;2022-12-01T07:22:45;6.20;99.90
44166;DHT22;30476;53.468;9.826;2022-12-01T07:25:11;6.20;99.90
44166;DHT22;30476;53.468;9.826;2022-12-01T07:27:37;6.20;99.90
44166;DHT22;30476;53.468;9.826;2022-12-01T07:30:03;6.20;99.90
44166;DHT22;30476;53.468;9.826;2022-12-01T07:32:29;6.20;99.90
44166;DHT22;30476;53.468;9.826;2022-12-01T07:34:54;6.20;99.90
44166;DHT22;30476;53.468;9.826;2022-12-01T07:37:20;6.20;99.90
44166;DHT22;30476;53.468;9.826;2022-12-01T07:39:46;6.20;99.90
44166;DHT22;30476;53.468;9.826;2022-12-01T07:42:12;6.20;99.90
44166;DHT22;30476;53.468;9.826;2022-12-01T07:44:37;6.20;99.90
44166;DHT22;30476;53.468;9.826;2022-12-01T07:47:03;6.10;99.90
44166;DHT22;30476;53.468;9.826;2022-12-01T07:49:29;6.10;99.90
44166;DHT22;30476;53.468;9.826;2022-12-01T07:51:55;6.10;99.90
44166;DHT22;30476;53.468;9.826;2022-12-01T07:54:20;6.10;99.90
44166;DHT22;30476;53.468;9.826;2022-12-01T07:56:46;6.10;99.90
44166;DHT22;30476;53.468;9.826;2022-12-01T07:59:12;6.10;99.90
44166;DHT22;30476;53.468;9.826;2022-12-01T08:01:38;6.10;99.90
44166;DHT22;30476;53.468;9.826;2022-12-01T08:04:04;6.10;99.90
44166;DHT22;30476;53.468;9.826;2022-12-01T08:06:30;6.10;99.90
44166;DHT22;30476;53.468;9.826;2022-12-01T08:08:56;6.10;99.90
44166;DHT22;30476;53.468;9.826;2022-12-01T08:11:24;6.10;99.90
44166;DHT22;30476;53.468;9.826;2022-12-01T08:13:51;6.10;99.90
44166;DHT22;30476;53.468;9.826;2022-12-01T08:16:19;6.10;99.90
44166;DHT22;30476;53.468;9.826;2022-12-01T08:18:46;6.10;99.90
44166;DHT22;30476;53.468;9.826;2022-12-01T08:21:14;6.10;99.90
44166;DHT22;30476;53.468;9.826;2022-12-01T08:23:41;6.10;99.90
44166;DHT22;30476;53.468;9.826;2022-12-01T08:26:13;6.10;99.90
44166;DHT22;30476;53.468;9.826;2022-12-01T08:28:40;6.00;99.90
44166;DHT22;30476;53.468;9.826;2022-12-01T08:31:21;6.10;99.90
44166;DHT22;30476;53.468;9.826;2022-12-01T08:33:47;6.10;99.90
44166;DHT22;30476;53.468;9.826;2022-12-01T08:36:13;6.00;99.90
44166;DHT22;30476;53.468;9.826;2022-12-01T08:38:45;6.10;99.90
44166;DHT22;30476;53.468;9.826;2022-12-01T08:41:12;6.10;99.90
44166;DHT22;30476;53.468;9.826;2022-12-01T08:43:39;6.10;99.90
44166;DHT22;30476;53.468;9.826;2022-12-01T08:46:07;6.10;99.90
44166;DHT22;30476;53.468;9.826;2022-12-01T08:48:34;6.10;99.90
44166;DHT22;30476;53.468;9.826;2022-12-01T08:53:29;6.20;99.90
44166;DHT22;30476;53.468;9.826;2022-12-01T08:55:59;6.20;99.90
44166;DHT22;30476;53.468;9.826;2022-12-01T08:58:25;6.20;99.90
44166;DHT22;30476;53.468;9.826;2022-12-01T09:00:51;6.20;99.90
44166;DHT22;30476;53.468;9.826;2022-12-01T09:03:17;6.20;99.90
44166;DHT22;30476;53.468;9.826;2022-12-01T09:05:43;6.20;99.90
44166;DHT22;30476;53.468;9.826;2022-12-01T09:08:09;6.20;99.90
44166;DHT22;30476;53.468;9.826;2022-12-01T09:10:58;6.20;99.90
44166;DHT22;30476;53.468;9.826;2022-12-01T09:13:25;6.20;99.90
44166;DHT22;30476;53.468;9.826;2022-12-01T09:16:08;6.20;99.90
44166;DHT22;30476;53.468;9.826;2022-12-01T09:18:35;6.20;99.90
44166;DHT22;30476;53.468;9.826;2022-12-01T09:21:12;6.20;99.90
44166;DHT22;30476;53.468;9.826;2022-12-01T09:23:38;6.10;99.90
44166;DHT22;30476;53.468;9.826;2022-12-01T09:26:04;6.20;99.90
44166;DHT22;30476;53.468;9.826;2022-12-01T09:28:30;6.20;99.90
44166;DHT22;30476;53.468;9.826;2022-12-01T09:30:57;6.20;99.90
44166;DHT22;30476;53.468;9.826;2022-12-01T09:33:27;6.30;99.90
44166;DHT22;30476;53.468;9.826;2022-12-01T09:35:57;6.30;99.90
44166;DHT22;30476;53.468;9.826;2022-12-01T09:38:23;6.30;99.90
44166;DHT22;30476;53.468;9.826;2022-12-01T09:40:49;6.30;99.90
44166;DHT22;30476;53.468;9.826;2022-12-01T09:43:19;6.30;99.90
44166;DHT22;30476;53.468;9.826;2022-12-01T09:45:51;6.40;99.90
44166;DHT22;30476;53.468;9.826;2022-12-01T09:48:42;6.30;99.90
44166;DHT22;30476;53.468;9.826;2022-12-01T09:51:19;6.30;99.90
44166;DHT22;30476;53.468;9.826;2022-12-01T09:53:48;6.40;99.90
44166;DHT22;30476;53.468;9.826;2022-12-01T09:56:24;6.40;99.90
44166;DHT22;30476;53.468;9.826;2022-12-01T09:58:56;6.30;99.90
44166;DHT22;30476;53.468;9.826;2022-12-01T10:01:34;6.40;99.90
44166;DHT22;30476;53.468;9.826;2022-12-01T10:04:30;6.40;99.90
44166;DHT22;30476;53.468;9.826;2022-12-01T10:07:05;6.40;99.90
44166;DHT22;30476;53.468;9.826;2022-12-01T10:10:03;6.40;99.90
44166;DHT22;30476;53.468;9.826;2022-12-01T10:12:32;6.40;99.90
44166;DHT22;30476;53.468;9.826;2022-12-01T10:18:11;6.30;99.90
44166;DHT22;30476;53.468;9.826;2022-12-01T10:20:50;6.30;99.90
44166;DHT22;30476;53.468;9.826;2022-12-01T10:26:13;6.40;99.90
44166;DHT22;30476;53.468;9.826;2022-12-01T10:28:56;6.30;99.90
44166;DHT22;30476;53.468;9.826;2022-12-01T10:31:28;6.30;99.90
44166;DHT22;30476;53.468;9.826;2022-12-01T10:34:07;6.30;99.90
44166;DHT22;30476;53.468;9.826;2022-12-01T10:36:35;6.30;99.90
44166;DHT22;30476;53.468;9.826;2022-12-01T10:39:03;6.30;99.90
44166;DHT22;30476;53.468;9.826;2022-12-01T10:41:33;6.30;99.90
44166;DHT22;30476;53.468;9.826;2022-12-01T10:44:03;6.30;99.90
44166;DHT22;30476;53.468;9.826;2022-12-01T10:46:54;6.30;99.90
44166;DHT22;30476;53.468;9.826;2022-12-01T10:49:37;6.30;99.90
44166;DHT22;30476;53.468;9.826;2022-12-01T10:52:04;6.30;99.90
44166;DHT22;30476;53.468;9.826;2022-12-01T10:54:33;6.20;99.90
44166;DHT22;30476;53.468;9.826;2022-12-01T10:57:01;6.20;99.90
44166;DHT22;30476;53.468;9.826;2022-12-01T10:59:47;6.20;99.90
44166;DHT22;30476;53.468;9.826;2022-12-01T11:02:16;6.20;99.90
44166;DHT22;30476;53.468;9.826;2022-12-01T11:04:50;6.20;99.90
44166;DHT22;30476;53.468;9.826;2022-12-01T11:07:31;6.20;99.90
44166;DHT22;30476;53.468;9.826;2022-12-01T11:10:25;6.20;99.90
44166;DHT22;30476;53.468;9.826;2022-12-01T11:13:04;6.20;99.90
44166;DHT22;30476;53.468;9.826;2022-12-01T11:15:33;6.10;99.90
44166;DHT22;30476;53.468;9.826;2022-12-01T11:18:23;6.00;99.90
44166;DHT22;30476;53.468;9.826;2022-12-01T11:21:12;6.00;99.90
44166;DHT22;30476;53.468;9.826;2022-12-01T11:23:45;6.00;99.90
44166;DHT22;30476;53.468;9.826;2022-12-01T11:26:13;5.90;99.90
44166;DHT22;30476;53.468;9.826;2022-12-01T11:28:57;5.90;99.90
44166;DHT22;30476;53.468;9.826;2022-12-01T11:31:42;5.90;99.90
44166;DHT22;30476;53.468;9.826;2022-12-01T11:34:19;5.90;99.90
44166;DHT22;30476;53.468;9.826;2022-12-01T11:36:49;5.90;99.90
44166;DHT22;30476;53.468;9.826;2022-12-01T11:39:36;5.90;99.90
44166;DHT22;30476;53.468;9.826;2022-12-01T11:42:03;5.90;99.90
44166;DHT22;30476;53.468;9.826;2022-12-01T11:44:31;5.90;99.90
44166;DHT22;30476;53.468;9.826;2022-12-01T11:47:19;5.80;99.90
44166;DHT22;30476;53.468;9.826;2022-12-01T11:49:58;5.80;99.90
44166;DHT22;30476;53.468;9.826;2022-12-01T11:52:31;5.80;99.90
44166;DHT22;30476;53.468;9.826;2022-12-01T11:55:01;5.80;99.90
44166;DHT22;30476;53.468;9.826;2022-12-01T11:57:29;5.70;99.90
44166;DHT22;30476;53.468;9.826;2022-12-01T11:59:55;5.70;99.90
44166;DHT22;30476;53.468;9.826;2022-12-01T12:02:42;5.70;99.90
44166;DHT22;30476;53.468;9.826;2022-12-01T12:05:34;5.70;99.90
44166;DHT22;30476;53.468;9.826;2022-12-01T12:08:05;5.70;99.90
44166;DHT22;30476;53.468;9.826;2022-12-01T12:10:51;5.70;99.90
44166;DHT22;30476;53.468;9.826;2022-12-01T12:16:36;5.60;99.90
44166;DHT22;30476;53.468;9.826;2022-12-01T12:19:14;5.60;99.90
44166;DHT22;30476;53.468;9.826;2022-12-01T12:24:41;5.60;99.90
44166;DHT22;30476;53.468;9.826;2022-12-01T12:30:14;5.60;99.90
44166;DHT22;30476;53.468;9.826;2022-12-01T12:44:08;5.40;99.90
44166;DHT22;30476;53.468;9.826;2022-12-01T12:46:48;5.40;99.90
44166;DHT22;30476;53.468;9.826;2022-12-01T12:52:00;5.40;99.90
44166;DHT22;30476;53.468;9.826;2022-12-01T12:54:33;5.30;99.90
44166;DHT22;30476;53.468;9.826;2022-12-01T12:57:14;5.30;99.90
44166;DHT22;30476;53.468;9.826;2022-12-01T13:00:05;5.30;99.90
44166;DHT22;30476;53.468;9.826;2022-12-01T13:02:55;5.30;99.90
44166;DHT22;30476;53.468;9.826;2022-12-01T13:05:33;5.30;99.90
44166;DHT22;30476;53.468;9.826;2022-12-01T13:10:43;5.20;99.90
44166;DHT22;30476;53.468;9.826;2022-12-01T13:16:18;5.20;99.90
44166;DHT22;30476;53.468;9.826;2022-12-01T13:18:52;5.20;99.90
44166;DHT22;30476;53.468;9.826;2022-12-01T13:21:20;5.20;99.90
44166;DHT22;30476;53.468;9.826;2022-12-01T13:23:48;5.20;99.90
44166;DHT22;30476;53.468;9.826;2022-12-01T13:26:16;5.20;99.90
44166;DHT22;30476;53.468;9.826;2022-12-01T13:28:52;5.20;99.90
44166;DHT22;30476;53.468;9.826;2022-12-01T13:31:20;5.20;99.90
44166;DHT22;30476;53.468;9.826;2022-12-01T13:34:03;5.20;99.90
44166;DHT22;30476;53.468;9.826;2022-12-01T13:36:30;5.20;99.90
44166;DHT22;30476;53.468;9.826;2022-12-01T13:39:05;5.20;99.90
44166;DHT22;30476;53.468;9.826;2022-12-01T13:41:38;5.10;99.90
44166;DHT22;30476;53.468;9.826;2022-12-01T13:44:20;5.20;99.90
44166;DHT22;30476;53.468;9.826;2022-12-01T14:00:26;5.20;99.90
44166;DHT22;30476;53.468;9.826;2022-12-01T14:06:05;5.20;99.90
44166;DHT22;30476;53.468;9.826;2022-12-01T14:08:45;5.20;99.90
44166;DHT22;30476;53.468;9.826;2022-12-01T14:11:19;5.20;99.90
44166;DHT22;30476;53.468;9.826;2022-12-01T14:13:58;5.10;99.90
44166;DHT22;30476;53.468;9.826;2022-12-01T14:21:58;5.00;99.90
44166;DHT22;30476;53.468;9.826;2022-12-01T14:24:32;5.00;99.90
44166;DHT22;30476;53.468;9.826;2022-12-01T14:26:59;5.00;99.90
44166;DHT22;30476;53.468;9.826;2022-12-01T14:29:35;5.00;99.90
44166;DHT22;30476;53.468;9.826;2022-12-01T14:34:36;5.00;99.90
44166;DHT22;30476;53.468;9.826;2022-12-01T14:37:10;5.00;99.90
44166;DHT22;30476;53.468;9.826;2022-12-01T14:40:23;5.00;99.90
44166;DHT22;30476;53.468;9.826;2022-12-01T14:42:52;5.00;99.90
44166;DHT22;30476;53.468;9.826;2022-12-01T14:45:43;4.90;99.90
44166;DHT22;30476;53.468;9.826;2022-12-01T14:48:23;5.00;99.90
44166;DHT22;30476;53.468;9.826;2022-12-01T14:50:54;5.00;99.90
44166;DHT22;30476;53.468;9.826;2022-12-01T14:53:29;5.00;99.90
44166;DHT22;30476;53.468;9.826;2022-12-01T14:56:08;5.00;99.90
44166;DHT22;30476;53.468;9.826;2022-12-01T14:58:35;5.00;99.90
44166;DHT22;30476;53.468;9.826;2022-12-01T15:03:55;5.00;99.90
44166;DHT22;30476;53.468;9.826;2022-12-01T15:06:24;4.90;99.90
44166;DHT22;30476;53.468;9.826;2022-12-01T15:09:04;5.00;99.90
44166;DHT22;30476;53.468;9.826;2022-12-01T15:11:30;4.90;99.90
44166;DHT22;30476;53.468;9.826;2022-12-01T15:13:56;4.90;99.90
44166;DHT22;30476;53.468;9.826;2022-12-01T15:16:24;4.90;99.90
44166;DHT22;30476;53.468;9.826;2022-12-01T15:18:51;4.90;99.90
44166;DHT22;30476;53.468;9.826;2022-12-01T15:21:29;4.90;99.90
44166;DHT22;30476;53.468;9.826;2022-12-01T15:26:23;4.90;99.90
44166;DHT22;30476;53.468;9.826;2022-12-01T15:29:44;4.90;99.90
44166;DHT22;30476;53.468;9.826;2022-12-01T15:31:59;4.90;99.90
44166;DHT22;30476;53.468;9.826;2022-12-01T15:34:36;4.90;99.90
44166;DHT22;30476;53.468;9.826;2022-12-01T15:37:04;4.80;99.90
44166;DHT22;30476;53.468;9.826;2022-12-01T15:39:40;4.80;99.90
44166;DHT22;30476;53.468;9.826;2022-12-01T15:42:25;4.90;99.90
44166;DHT22;30476;53.468;9.826;2022-12-01T15:45:11;4.90;99.90
44166;DHT22;30476;53.468;9.826;2022-12-01T15:50:24;4.90;99.90
44166;DHT22;30476;53.468;9.826;2022-12-01T15:52:50;4.90;99.90
44166;DHT22;30476;53.468;9.826;2022-12-01T15:55:27;4.90;99.90
44166;DHT22;30476;53.468;9.826;2022-12-01T15:57:54;4.90;99.90
44166;DHT22;30476;53.468;9.826;2022-12-01T16:00:21;4.90;99.90
44166;DHT22;30476;53.468;9.826;2022-12-01T16:02:53;4.90;99.90
44166;DHT22;30476;53.468;9.826;2022-12-01T16:05:25;4.90;99.90
44166;DHT22;30476;53.468;9.826;2022-12-01T16:07:52;4.90;99.90
44166;DHT22;30476;53.468;9.826;2022-12-01T16:10:33;4.90;99.90
44166;DHT22;30476;53.468;9.826;2022-12-01T16:13:34;4.80;99.90
44166;DHT22;30476;53.468;9.826;2022-12-01T16:19:00;4.80;99.90
44166;DHT22;30476;53.468;9.826;2022-12-01T16:21:30;4.80;99.90
44166;DHT22;30476;53.468;9.826;2022-12-01T16:24:02;4.80;99.90
44166;DHT22;30476;53.468;9.826;2022-12-01T16:26:29;4.80;99.90
44166;DHT22;30476;53.468;9.826;2022-12-01T16:28:56;4.80;99.90
44166;DHT22;30476;53.468;9.826;2022-12-01T16:31:25;4.80;99.90
44166;DHT22;30476;53.468;9.826;2022-12-01T16:34:01;4.80;99.90
44166;DHT22;30476;53.468;9.826;2022-12-01T16:36:28;4.80;99.90
44166;DHT22;30476;53.468;9.826;2022-12-01T16:38:54;4.80;99.90
44166;DHT22;30476;53.468;9.826;2022-12-01T16:41:29;4.80;99.90
44166;DHT22;30476;53.468;9.826;2022-12-01T16:43:57;4.70;99.90
44166;DHT22;30476;53.468;9.826;2022-12-01T16:46:23;4.70;99.90
44166;DHT22;30476;53.468;9.826;2022-12-01T16:48:49;4.70;99.90
44166;DHT22;30476;53.468;9.826;2022-12-01T16:51:15;4.70;99.90
44166;DHT22;30476;53.468;9.826;2022-12-01T16:53:40;4.70;99.90
44166;DHT22;30476;53.468;9.826;2022-12-01T16:56:11;4.80;99.90
44166;DHT22;30476;53.468;9.826;2022-12-01T16:58:37;4.80;99.90
44166;DHT22;30476;53.468;9.826;2022-12-01T17:01:06;4.80;99.90
44166;DHT22;30476;53.468;9.826;2022-12-01T17:03:32;4.70;99.90
44166;DHT22;30476;53.468;9.826;2022-12-01T17:05:59;4.80;99.90
44166;DHT22;30476;53.468;9.826;2022-12-01T17:08:25;4.80;99.90
44166;DHT22;30476;53.468;9.826;2022-12-01T17:10:52;4.80;99.90
44166;DHT22;30476;53.468;9.826;2022-12-01T17:13:21;4.70;99.90
44166;DHT22;30476;53.468;9.826;2022-12-01T17:15:52;4.70;99.90
44166;DHT22;30476;53.468;9.826;2022-12-01T17:18:20;4.70;99.90
44166;DHT22;30476;53.468;9.826;2022-12-01T17:21:07;4.80;99.90
44166;DHT22;30476;53.468;9.826;2022-12-01T17:23:34;4.70;99.90
44166;DHT22;30476;53.468;9.826;2022-12-01T17:26:09;4.80;99.90
44166;DHT22;30476;53.468;9.826;2022-12-01T17:28:36;4.80;99.90
44166;DHT22;30476;53.468;9.826;2022-12-01T17:31:03;4.80;99.90
44166;DHT22;30476;53.468;9.826;2022-12-01T17:33:30;4.80;99.90